Time;durP1;ratioP1;P1;durP2;ratioP2;P2;SDS_P1;SDS_P2;PMS_P1;PMS_P2;Temp;Humidity;BMP_temperature;BMP_pressure;BME280_temperature;BME280_humidity;BME280_pressure;Samples;Min_cycle;Max_cycle;Signal;HPM_P1;HPM_P2
2023/09/04 00:01:55;;;;;;;0.00;0.00;;;;;;;;;;4880372;29;20132;-80
2023/09/04 00:04:21;;;;;;;0.00;0.00;;;;;;;;;;4879965;29;20049;-79
2023/09/04 00:06:47;;;;;;;0.00;0.00;;;;;;;;;;4880782;29;20045;-80
2023/09/04 00:09:15;;;;;;;0.08;0.00;;;;;;;;;;4880195;29;20131;-79
2023/09/04 00:11:41;;;;;;;0.00;0.00;;;;;;;;;;4880067;29;20132;-80
2023/09/04 00:14:07;;;;;;;0.00;0.00;;;;;;;;;;4880467;29;20060;-79
2023/09/04 00:16:33;;;;;;;0.00;0.00;;;;;;;;;;4880339;29;20049;-80
2023/09/04 00:18:59;;;;;;;0.00;0.00;;;;;;;;;;4865540;29;20045;-80
2023/09/04 00:21:25;;;;;;;0.00;0.00;;;;;;;;;;4881169;29;20093;-79
2023/09/04 00:23:51;;;;;;;0.00;0.00;;;;;;;;;;4864332;29;20051;-79
2023/09/04 00:26:17;;;;;;;0.00;0.00;;;;;;;;;;4879851;29;20060;-79
2023/09/04 00:28:43;;;;;;;0.00;0.00;;;;;;;;;;4864690;29;20086;-79
2023/09/04 00:31:09;;;;;;;0.15;0.05;;;;;;;;;;4880587;29;20041;-80
2023/09/04 00:33:35;;;;;;;0.00;0.00;;;;;;;;;;4879888;29;20064;-80
2023/09/04 00:36:02;;;;;;;0.00;0.00;;;;;;;;;;4879836;29;20105;-80
2023/09/04 00:38:28;;;;;;;0.00;0.00;;;;;;;;;;4880055;29;20144;-79
2023/09/04 00:40:54;;;;;;;0.00;0.00;;;;;;;;;;4880780;29;20422;-80
2023/09/04 00:43:20;;;;;;;0.00;0.00;;;;;;;;;;4879908;29;20136;-79
2023/09/04 00:45:47;;;;;;;0.00;0.00;;;;;;;;;;4879589;29;20418;-79
2023/09/04 00:48:13;;;;;;;0.00;0.00;;;;;;;;;;4864236;29;20045;-79
2023/09/04 00:50:41;;;;;;;0.00;0.00;;;;;;;;;;4880410;29;20088;-79
2023/09/04 00:53:07;;;;;;;0.00;0.00;;;;;;;;;;4881154;29;20108;-79
2023/09/04 00:55:33;;;;;;;0.00;0.00;;;;;;;;;;4879491;29;20057;-79
2023/09/04 00:58:00;;;;;;;0.00;0.00;;;;;;;;;;4879462;29;20049;-80
2023/09/04 01:00:27;;;;;;;0.00;0.00;;;;;;;;;;4864019;29;20089;-79
2023/09/04 01:02:54;;;;;;;0.00;0.00;;;;;;;;;;4880863;29;20561;-79
2023/09/04 01:05:20;;;;;;;0.00;0.00;;;;;;;;;;4879804;29;20386;-79
2023/09/04 01:07:47;;;;;;;0.00;0.00;;;;;;;;;;4879831;29;20215;-79
2023/09/04 01:10:14;;;;;;;0.00;0.00;;;;;;;;;;4880287;29;20132;-79
2023/09/04 01:12:46;;;;;;;0.00;0.00;;;;;;;;;;4879722;29;20402;-79
2023/09/04 01:15:12;;;;;;;0.10;0.00;;;;;;;;;;4880359;29;20390;-79
2023/09/04 01:17:39;;;;;;;0.00;0.00;;;;;;;;;;4880703;29;20085;-80
2023/09/04 01:20:24;;;;;;;0.00;0.00;;;;;;;;;;4881008;29;20119;-79
2023/09/04 01:22:50;;;;;;;0.10;0.00;;;;;;;;;;4879241;29;20148;-79
2023/09/04 01:25:16;;;;;;;0.00;0.00;;;;;;;;;;4879702;29;20363;-79
2023/09/04 01:27:46;;;;;;;0.00;0.00;;;;;;;;;;4863971;29;20045;-79
2023/09/04 01:30:14;;;;;;;0.00;0.00;;;;;;;;;;4880399;29;20053;-79
2023/09/04 01:32:49;;;;;;;0.00;0.00;;;;;;;;;;4879601;29;20056;-79
2023/09/04 01:35:17;;;;;;;0.00;0.00;;;;;;;;;;4879838;29;20053;-79
2023/09/04 01:37:44;;;;;;;0.00;0.00;;;;;;;;;;4879306;29;20057;-79
2023/09/04 01:40:10;;;;;;;0.00;0.00;;;;;;;;;;4879817;29;20449;-79
2023/09/04 01:42:38;;;;;;;0.00;0.00;;;;;;;;;;4879050;29;20073;-79
2023/09/04 01:45:05;;;;;;;0.00;0.00;;;;;;;;;;4863785;29;20534;-79
2023/09/04 01:47:31;;;;;;;0.00;0.00;;;;;;;;;;4879037;29;20053;-79
2023/09/04 01:49:57;;;;;;;0.00;0.00;;;;;;;;;;4864489;29;20061;-79
2023/09/04 01:52:23;;;;;;;0.00;0.00;;;;;;;;;;4882339;29;20424;-79
2023/09/04 01:54:49;;;;;;;0.00;0.00;;;;;;;;;;4882545;29;20059;-79
2023/09/04 01:57:16;;;;;;;0.00;0.00;;;;;;;;;;4883306;29;20056;-79
2023/09/04 01:59:42;;;;;;;0.10;0.10;;;;;;;;;;4883348;29;20092;-80
2023/09/04 02:02:08;;;;;;;0.00;0.00;;;;;;;;;;4882415;29;20060;-79
2023/09/04 02:04:34;;;;;;;0.90;0.00;;;;;;;;;;4851904;29;20394;-79
2023/09/04 02:07:01;;;;;;;0.00;0.00;;;;;;;;;;4882929;29;20053;-79
2023/09/04 02:09:27;;;;;;;0.00;0.00;;;;;;;;;;4882104;29;20056;-80
2023/09/04 02:11:53;;;;;;;0.00;0.00;;;;;;;;;;4882006;29;20063;-80
2023/09/04 02:14:19;;;;;;;0.00;0.00;;;;;;;;;;4883147;29;20044;-79
2023/09/04 02:16:46;;;;;;;0.00;0.00;;;;;;;;;;4883064;29;20453;-80
2023/09/04 02:19:12;;;;;;;0.00;0.00;;;;;;;;;;4882098;29;20059;-79
2023/09/04 02:21:38;;;;;;;0.00;0.00;;;;;;;;;;4882504;29;20045;-79
2023/09/04 02:24:04;;;;;;;0.00;0.00;;;;;;;;;;4882895;29;20059;-79
2023/09/04 02:26:30;;;;;;;0.00;0.00;;;;;;;;;;4882622;29;20088;-79
2023/09/04 02:28:57;;;;;;;0.00;0.00;;;;;;;;;;4866653;29;20546;-79
2023/09/04 02:31:23;;;;;;;0.00;0.00;;;;;;;;;;4881539;29;20490;-79
2023/09/04 02:33:50;;;;;;;0.10;0.00;;;;;;;;;;4883064;29;20105;-79
2023/09/04 02:36:16;;;;;;;0.00;0.00;;;;;;;;;;4883354;29;20053;-79
2023/09/04 02:38:42;;;;;;;0.22;0.10;;;;;;;;;;4881402;29;20107;-79
2023/09/04 02:41:08;;;;;;;0.00;0.00;;;;;;;;;;4881566;29;20108;-80
2023/09/04 02:43:34;;;;;;;0.00;0.00;;;;;;;;;;4881943;29;20045;-79
2023/09/04 02:46:00;;;;;;;0.00;0.00;;;;;;;;;;4866785;29;20374;-80
2023/09/04 02:48:27;;;;;;;0.00;0.00;;;;;;;;;;4881927;29;20189;-79
2023/09/04 02:50:57;;;;;;;0.00;0.00;;;;;;;;;;4866836;29;20082;-80
2023/09/04 02:53:26;;;;;;;0.00;0.00;;;;;;;;;;4881240;29;20057;-80
2023/09/04 02:55:53;;;;;;;0.05;0.05;;;;;;;;;;4881807;29;20059;-79
2023/09/04 02:58:20;;;;;;;0.00;0.00;;;;;;;;;;4882035;29;20099;-79
2023/09/04 03:00:46;;;;;;;0.00;0.00;;;;;;;;;;4881408;29;20057;-79
2023/09/04 03:03:13;;;;;;;0.00;0.00;;;;;;;;;;4880932;29;20053;-79
2023/09/04 03:05:39;;;;;;;0.05;0.00;;;;;;;;;;4881990;29;20435;-80
2023/09/04 03:08:05;;;;;;;0.00;0.00;;;;;;;;;;4866031;29;20053;-79
2023/09/04 03:10:31;;;;;;;0.00;0.00;;;;;;;;;;4880939;29;20489;-80
2023/09/04 03:12:57;;;;;;;0.00;0.00;;;;;;;;;;4882370;29;20092;-79
2023/09/04 03:15:23;;;;;;;0.00;0.00;;;;;;;;;;4882012;29;20054;-79
2023/09/04 03:17:49;;;;;;;0.00;0.00;;;;;;;;;;4880738;29;20455;-80
2023/09/04 03:20:19;;;;;;;0.00;0.00;;;;;;;;;;4881686;29;20054;-79
2023/09/04 03:22:46;;;;;;;0.00;0.00;;;;;;;;;;4865235;29;20505;-79
2023/09/04 03:25:12;;;;;;;0.00;0.00;;;;;;;;;;4881933;29;20057;-79
2023/09/04 03:27:38;;;;;;;0.45;0.00;;;;;;;;;;4881836;29;20052;-79
2023/09/04 03:30:04;;;;;;;0.00;0.00;;;;;;;;;;4880976;29;20063;-80
2023/09/04 03:32:30;;;;;;;0.00;0.00;;;;;;;;;;4880812;29;20503;-79
2023/09/04 03:34:57;;;;;;;0.00;0.00;;;;;;;;;;4880384;29;20056;-79
2023/09/04 03:37:24;;;;;;;0.00;0.00;;;;;;;;;;4880453;29;20475;-79
2023/09/04 03:39:50;;;;;;;0.00;0.00;;;;;;;;;;4881859;29;20104;-79
2023/09/04 03:42:16;;;;;;;0.00;0.00;;;;;;;;;;4865453;29;20052;-79
2023/09/04 03:44:42;;;;;;;0.00;0.00;;;;;;;;;;4880539;29;20049;-79
2023/09/04 03:47:10;;;;;;;0.00;0.00;;;;;;;;;;4880682;29;20087;-80
2023/09/04 03:49:36;;;;;;;0.00;0.00;;;;;;;;;;4864870;29;20081;-79
2023/09/04 03:52:03;;;;;;;0.00;0.00;;;;;;;;;;4880527;29;20093;-79
2023/09/04 03:54:29;;;;;;;0.00;0.00;;;;;;;;;;4865267;29;20103;-79
2023/09/04 03:56:56;;;;;;;0.00;0.00;;;;;;;;;;4864706;29;20088;-79
2023/09/04 03:59:22;;;;;;;0.00;0.00;;;;;;;;;;4880434;29;20049;-78
2023/09/04 04:01:48;;;;;;;0.00;0.00;;;;;;;;;;4879813;29;20520;-79
2023/09/04 04:04:14;;;;;;;0.00;0.00;;;;;;;;;;4880613;29;20056;-79
2023/09/04 04:06:40;;;;;;;0.50;0.00;;;;;;;;;;4879692;29;20112;-79
2023/09/04 04:09:07;;;;;;;0.00;0.00;;;;;;;;;;4880505;29;20391;-79
2023/09/04 04:11:34;;;;;;;0.00;0.00;;;;;;;;;;4879648;29;20498;-79
2023/09/04 04:14:00;;;;;;;0.00;0.00;;;;;;;;;;4879305;29;20049;-79
2023/09/04 04:16:26;;;;;;;0.00;0.00;;;;;;;;;;4881469;29;20049;-79
2023/09/04 04:18:52;;;;;;;0.00;0.00;;;;;;;;;;4864273;29;20051;-79
2023/09/04 04:21:18;;;;;;;0.00;0.00;;;;;;;;;;4879617;29;20136;-79
2023/09/04 04:23:44;;;;;;;0.00;0.00;;;;;;;;;;4879548;29;20060;-79
2023/09/04 04:26:10;;;;;;;0.00;0.00;;;;;;;;;;4879495;29;20501;-79
2023/09/04 04:28:36;;;;;;;0.00;0.00;;;;;;;;;;4879433;29;20052;-79
2023/09/04 04:31:02;;;;;;;0.00;0.00;;;;;;;;;;4863745;29;20081;-79
2023/09/04 04:33:29;;;;;;;0.00;0.00;;;;;;;;;;4880475;29;20139;-79
2023/09/04 04:35:55;;;;;;;0.00;0.00;;;;;;;;;;4879402;29;20406;-79
2023/09/04 04:38:21;;;;;;;0.00;0.00;;;;;;;;;;4878878;29;20490;-79
2023/09/04 04:40:47;;;;;;;0.00;0.00;;;;;;;;;;4880981;29;20053;-79
2023/09/04 04:43:14;;;;;;;0.00;0.00;;;;;;;;;;4880058;29;20048;-78
2023/09/04 04:45:40;;;;;;;0.40;0.20;;;;;;;;;;4880028;29;20430;-78
2023/09/04 04:48:06;;;;;;;0.00;0.00;;;;;;;;;;4880016;29;20402;-79
2023/09/04 04:50:32;;;;;;;0.03;0.00;;;;;;;;;;4879476;29;20084;-79
2023/09/04 04:52:58;;;;;;;0.00;0.00;;;;;;;;;;4879446;29;20085;-79
2023/09/04 04:55:25;;;;;;;0.00;0.00;;;;;;;;;;4879192;29;20056;-79
2023/09/04 04:57:51;;;;;;;0.00;0.00;;;;;;;;;;4880337;29;20141;-79
2023/09/04 05:00:17;;;;;;;0.00;0.00;;;;;;;;;;4879503;29;20049;-79
2023/09/04 05:02:43;;;;;;;0.00;0.00;;;;;;;;;;4879452;29;20076;-79
2023/09/04 05:05:10;;;;;;;0.00;0.00;;;;;;;;;;4880091;29;20045;-79
2023/09/04 05:07:37;;;;;;;0.00;0.00;;;;;;;;;;4879327;29;20414;-79
2023/09/04 05:10:03;;;;;;;0.00;0.00;;;;;;;;;;4878945;29;20109;-79
2023/09/04 05:12:29;;;;;;;0.00;0.00;;;;;;;;;;4879044;29;20047;-79
2023/09/04 05:14:55;;;;;;;0.00;0.00;;;;;;;;;;4880115;29;20045;-80
2023/09/04 05:17:21;;;;;;;0.00;0.00;;;;;;;;;;4879040;29;20092;-79
2023/09/04 05:19:47;;;;;;;0.00;0.00;;;;;;;;;;4863679;29;20478;-79
2023/09/04 05:22:13;;;;;;;0.00;0.00;;;;;;;;;;4879267;29;20053;-79
2023/09/04 05:24:39;;;;;;;0.68;0.25;;;;;;;;;;4878891;29;20053;-79
2023/09/04 05:27:06;;;;;;;0.00;0.00;;;;;;;;;;4883661;29;20061;-79
2023/09/04 05:29:32;;;;;;;0.00;0.00;;;;;;;;;;4867389;29;20102;-79
2023/09/04 05:31:58;;;;;;;1.02;0.30;;;;;;;;;;4883592;29;20063;-79
2023/09/04 05:34:25;;;;;;;0.00;0.00;;;;;;;;;;4882544;29;20060;-80
2023/09/04 05:36:53;;;;;;;0.00;0.00;;;;;;;;;;4882747;29;20045;-79
2023/09/04 05:39:19;;;;;;;0.00;0.00;;;;;;;;;;4866168;29;20466;-80
2023/09/04 05:41:47;;;;;;;0.00;0.00;;;;;;;;;;4882700;29;20505;-79
2023/09/04 05:44:14;;;;;;;0.03;0.00;;;;;;;;;;4882598;29;20053;-79
2023/09/04 05:46:40;;;;;;;0.00;0.00;;;;;;;;;;4882116;29;20064;-78
2023/09/04 05:49:06;;;;;;;0.00;0.00;;;;;;;;;;4882759;29;20514;-79
2023/09/04 05:51:32;;;;;;;0.00;0.00;;;;;;;;;;4883048;29;20100;-79
2023/09/04 05:53:58;;;;;;;0.00;0.00;;;;;;;;;;4882369;29;20057;-79
2023/09/04 05:56:24;;;;;;;0.00;0.00;;;;;;;;;;4882505;29;20060;-79
2023/09/04 05:58:51;;;;;;;0.00;0.00;;;;;;;;;;4883060;29;20141;-79
2023/09/04 06:01:18;;;;;;;0.00;0.00;;;;;;;;;;4882271;29;20048;-78
2023/09/04 06:03:44;;;;;;;0.00;0.00;;;;;;;;;;4883983;29;20116;-79
2023/09/04 06:06:10;;;;;;;0.00;0.00;;;;;;;;;;4882621;29;20486;-78
2023/09/04 06:08:37;;;;;;;0.00;0.00;;;;;;;;;;4866545;29;20053;-79
2023/09/04 06:11:04;;;;;;;0.00;0.00;;;;;;;;;;4866390;29;20064;-79
2023/09/04 06:13:30;;;;;;;0.00;0.00;;;;;;;;;;4881929;29;20085;-78
2023/09/04 06:15:57;;;;;;;0.00;0.00;;;;;;;;;;4882205;29;20374;-79
2023/09/04 06:18:23;;;;;;;0.10;0.10;;;;;;;;;;4881325;29;20049;-79
2023/09/04 06:20:50;;;;;;;0.00;0.00;;;;;;;;;;4881912;29;20511;-79
2023/09/04 06:23:16;;;;;;;0.00;0.00;;;;;;;;;;4883114;29;20061;-79
2023/09/04 06:25:43;;;;;;;0.10;0.00;;;;;;;;;;4881690;29;20053;-79
2023/09/04 06:28:12;;;;;;;0.15;0.05;;;;;;;;;;4881831;29;20053;-79
2023/09/04 06:30:38;;;;;;;0.00;0.00;;;;;;;;;;4882293;29;20132;-79
2023/09/04 06:33:05;;;;;;;0.00;0.00;;;;;;;;;;4866880;29;20135;-79
2023/09/04 06:35:31;;;;;;;0.00;0.00;;;;;;;;;;4882379;29;20060;-79
2023/09/04 06:37:57;;;;;;;0.08;0.00;;;;;;;;;;4865470;29;20570;-78
2023/09/04 06:40:24;;;;;;;0.00;0.00;;;;;;;;;;4882348;29;20113;-79
2023/09/04 06:42:52;;;;;;;0.00;0.00;;;;;;;;;;4881861;29;20096;-79
2023/09/04 06:45:18;;;;;;;0.43;0.43;;;;;;;;;;4880989;29;20132;-79
2023/09/04 06:47:44;;;;;;;0.20;0.10;;;;;;;;;;4882254;29;20081;-79
2023/09/04 06:50:10;;;;;;;0.00;0.00;;;;;;;;;;4865971;29;20049;-79
2023/09/04 06:52:37;;;;;;;0.00;0.00;;;;;;;;;;4851268;29;20208;-79
2023/09/04 06:55:04;;;;;;;0.00;0.00;;;;;;;;;;4881932;29;20049;-79
2023/09/04 06:57:30;;;;;;;0.00;0.00;;;;;;;;;;4882816;29;20140;-79
2023/09/04 06:59:57;;;;;;;0.65;0.00;;;;;;;;;;4882084;29;20506;-79
2023/09/04 07:02:23;;;;;;;0.00;0.00;;;;;;;;;;4865676;29;20096;-80
2023/09/04 07:04:49;;;;;;;0.13;0.00;;;;;;;;;;4882040;29;20131;-80
2023/09/04 07:07:15;;;;;;;0.00;0.00;;;;;;;;;;4881707;29;20049;-79
2023/09/04 07:09:41;;;;;;;0.00;0.00;;;;;;;;;;4881107;29;20048;-80
2023/09/04 07:12:08;;;;;;;0.00;0.00;;;;;;;;;;4881440;29;20048;-79
2023/09/04 07:14:34;;;;;;;0.63;0.10;;;;;;;;;;4880898;29;20101;-79
2023/09/04 07:17:00;;;;;;;0.00;0.00;;;;;;;;;;4881819;29;20136;-79
2023/09/04 07:19:26;;;;;;;0.00;0.00;;;;;;;;;;4881795;29;20060;-79
2023/09/04 07:21:52;;;;;;;0.00;0.00;;;;;;;;;;4880698;29;20088;-80
2023/09/04 07:24:18;;;;;;;0.00;0.00;;;;;;;;;;4880881;29;20053;-79
2023/09/04 07:26:44;;;;;;;0.03;0.00;;;;;;;;;;4882329;29;20071;-79
2023/09/04 07:29:10;;;;;;;0.13;0.13;;;;;;;;;;4880617;29;20121;-79
2023/09/04 07:31:36;;;;;;;0.00;0.00;;;;;;;;;;4880428;29;20049;-79
2023/09/04 07:34:02;;;;;;;0.00;0.00;;;;;;;;;;4850585;29;20430;-79
2023/09/04 07:36:28;;;;;;;0.10;0.00;;;;;;;;;;4881572;29;20096;-79
2023/09/04 07:38:54;;;;;;;0.00;0.00;;;;;;;;;;4864522;29;20120;-79
2023/09/04 07:41:20;;;;;;;0.00;0.00;;;;;;;;;;4881366;29;20053;-78
2023/09/04 07:43:47;;;;;;;0.10;0.00;;;;;;;;;;4882221;29;20093;-79
2023/09/04 07:46:13;;;;;;;0.00;0.00;;;;;;;;;;4865483;29;20160;-81
2023/09/04 07:48:40;;;;;;;0.00;0.00;;;;;;;;;;4880190;29;20048;-80
2023/09/04 07:51:06;;;;;;;0.00;0.00;;;;;;;;;;4881527;29;20163;-80
2023/09/04 07:53:32;;;;;;;0.00;0.00;;;;;;;;;;4881090;29;20053;-80
2023/09/04 07:55:58;;;;;;;0.10;0.10;;;;;;;;;;4880462;29;20446;-80
2023/09/04 07:58:26;;;;;;;0.00;0.00;;;;;;;;;;4880343;29;20087;-80
2023/09/04 08:00:52;;;;;;;0.00;0.00;;;;;;;;;;4865102;29;20049;-80
2023/09/04 08:03:19;;;;;;;0.00;0.00;;;;;;;;;;4880406;29;20049;-80
2023/09/04 08:05:45;;;;;;;0.00;0.00;;;;;;;;;;4881099;29;20057;-80
2023/09/04 08:08:11;;;;;;;0.43;0.03;;;;;;;;;;4880106;29;20064;-81
2023/09/04 08:10:39;;;;;;;0.00;0.00;;;;;;;;;;4879837;29;20087;-80
2023/09/04 08:13:15;;;;;;;0.00;0.00;;;;;;;;;;4881196;29;20061;-80
2023/09/04 08:15:41;;;;;;;0.00;0.00;;;;;;;;;;4880790;29;20064;-80
2023/09/04 08:18:08;;;;;;;0.00;0.00;;;;;;;;;;4880490;29;20528;-80
2023/09/04 08:20:34;;;;;;;0.13;0.10;;;;;;;;;;4879820;29;20057;-80
2023/09/04 08:23:00;;;;;;;0.10;0.10;;;;;;;;;;4880902;29;20060;-80
2023/09/04 08:25:26;;;;;;;0.40;0.20;;;;;;;;;;4880853;29;20056;-81
2023/09/04 08:27:52;;;;;;;0.10;0.10;;;;;;;;;;4879915;29;20426;-80
2023/09/04 08:30:18;;;;;;;0.00;0.00;;;;;;;;;;4880698;29;20045;-80
2023/09/04 08:32:45;;;;;;;0.00;0.00;;;;;;;;;;4880815;29;20386;-79
2023/09/04 08:35:11;;;;;;;0.08;0.00;;;;;;;;;;4879710;29;20492;-80
2023/09/04 08:37:37;;;;;;;0.08;0.00;;;;;;;;;;4863888;29;20148;-80
2023/09/04 08:40:04;;;;;;;0.08;0.00;;;;;;;;;;4879938;29;20059;-80
2023/09/04 08:42:30;;;;;;;1.85;0.10;;;;;;;;;;4880339;29;20152;-80
2023/09/04 08:44:57;;;;;;;0.00;0.00;;;;;;;;;;4879566;29;20041;-80
2023/09/04 08:47:23;;;;;;;0.45;0.05;;;;;;;;;;4879955;29;20404;-80
2023/09/04 08:49:49;;;;;;;0.00;0.00;;;;;;;;;;4879475;29;20363;-80
2023/09/04 08:52:16;;;;;;;0.00;0.00;;;;;;;;;;4880588;29;20045;-80
2023/09/04 08:54:42;;;;;;;0.00;0.00;;;;;;;;;;4879699;29;20045;-80
2023/09/04 08:57:09;;;;;;;0.00;0.00;;;;;;;;;;4880564;29;20056;-79
2023/09/04 08:59:35;;;;;;;0.08;0.00;;;;;;;;;;4879961;29;20057;-80
2023/09/04 09:02:04;;;;;;;0.00;0.00;;;;;;;;;;4884316;29;20049;-79
2023/09/04 09:04:31;;;;;;;0.00;0.00;;;;;;;;;;4883419;29;20045;-80
2023/09/04 09:06:58;;;;;;;0.00;0.00;;;;;;;;;;4883122;29;20053;-80
2023/09/04 09:09:24;;;;;;;0.00;0.00;;;;;;;;;;4884261;29;20045;-80
2023/09/04 09:11:53;;;;;;;0.00;0.00;;;;;;;;;;4884251;29;20045;-80
2023/09/04 09:14:20;;;;;;;0.00;0.00;;;;;;;;;;4884399;29;20045;-79
2023/09/04 09:16:46;;;;;;;0.00;0.00;;;;;;;;;;4867494;29;20060;-80
2023/09/04 09:19:13;;;;;;;0.00;0.00;;;;;;;;;;4883117;29;20049;-80
2023/09/04 09:21:39;;;;;;;0.00;0.00;;;;;;;;;;4883948;29;20049;-80
2023/09/04 09:24:06;;;;;;;0.00;0.00;;;;;;;;;;4883702;29;20053;-80
2023/09/04 09:26:32;;;;;;;0.00;0.00;;;;;;;;;;4883930;29;20049;-80
2023/09/04 09:28:58;;;;;;;0.10;0.00;;;;;;;;;;4883933;29;20053;-80
2023/09/04 09:31:24;;;;;;;0.00;0.00;;;;;;;;;;4882498;29;20501;-80
2023/09/04 09:33:50;;;;;;;0.00;0.00;;;;;;;;;;4882823;29;20049;-80
2023/09/04 09:36:16;;;;;;;0.00;0.00;;;;;;;;;;4883746;29;20053;-80
2023/09/04 09:38:46;;;;;;;0.00;0.00;;;;;;;;;;4882853;29;20352;-80
2023/09/04 09:41:13;;;;;;;0.20;0.20;;;;;;;;;;4884113;29;20426;-80
2023/09/04 09:43:39;;;;;;;1.63;0.20;;;;;;;;;;4883762;29;20581;-81
2023/09/04 09:46:08;;;;;;;0.00;0.00;;;;;;;;;;4882994;29;20049;-81
2023/09/04 09:48:36;;;;;;;0.00;0.00;;;;;;;;;;4882551;29;20413;-81
2023/09/04 09:51:02;;;;;;;0.00;0.00;;;;;;;;;;4883443;29;20157;-81
2023/09/04 09:53:43;;;;;;;0.00;0.00;;;;;;;;;;4883352;29;20053;-81
2023/09/04 09:56:09;;;;;;;0.00;0.00;;;;;;;;;;4882835;29;20049;-81
2023/09/04 09:58:36;;;;;;;0.00;0.00;;;;;;;;;;4882522;29;20537;-81
2023/09/04 10:01:02;;;;;;;0.00;0.00;;;;;;;;;;4882520;29;20049;-81
2023/09/04 10:03:28;;;;;;;0.85;0.63;;;;;;;;;;4883320;29;20104;-82
2023/09/04 10:05:55;;;;;;;0.00;0.00;;;;;;;;;;4851964;29;20049;-81
2023/09/04 10:08:22;;;;;;;0.00;0.00;;;;;;;;;;4882640;29;20045;-81
2023/09/04 10:10:49;;;;;;;0.08;0.00;;;;;;;;;;4882608;29;20060;-81
2023/09/04 10:13:23;;;;;;;0.00;0.00;;;;;;;;;;4882619;29;20053;-81
2023/09/04 10:15:51;;;;;;;0.00;0.00;;;;;;;;;;4883076;29;20413;-81
2023/09/04 10:18:24;;;;;;;0.00;0.00;;;;;;;;;;4881698;29;20048;-81
2023/09/04 10:20:51;;;;;;;0.10;0.00;;;;;;;;;;4882190;29;20398;-81
2023/09/04 10:23:20;;;;;;;0.00;0.00;;;;;;;;;;4882384;29;20060;-81
2023/09/04 10:25:49;;;;;;;0.00;0.00;;;;;;;;;;4882040;29;20079;-81
2023/09/04 10:28:22;;;;;;;0.35;0.20;;;;;;;;;;4881851;29;20048;-81
2023/09/04 10:30:52;;;;;;;0.00;0.00;;;;;;;;;;4882103;29;20513;-81
2023/09/04 10:33:19;;;;;;;0.00;0.00;;;;;;;;;;4882642;29;20058;-79
2023/09/04 10:35:46;;;;;;;0.10;0.10;;;;;;;;;;4881802;29;20116;-79
2023/09/04 10:38:12;;;;;;;0.00;0.00;;;;;;;;;;4881725;29;20175;-79
2023/09/04 10:40:39;;;;;;;0.00;0.00;;;;;;;;;;4866615;29;20434;-79
2023/09/04 10:43:05;;;;;;;0.57;0.00;;;;;;;;;;4882590;29;20494;-79
2023/09/04 10:45:32;;;;;;;0.00;0.00;;;;;;;;;;4881753;29;20079;-80
2023/09/04 10:48:01;;;;;;;0.00;0.00;;;;;;;;;;4881970;29;20155;-79
2023/09/04 10:50:30;;;;;;;0.13;0.00;;;;;;;;;;4881668;29;20057;-80
2023/09/04 10:52:57;;;;;;;0.00;0.00;;;;;;;;;;4865744;29;20092;-80
2023/09/04 10:55:26;;;;;;;0.00;0.00;;;;;;;;;;4883024;29;20053;-80
2023/09/04 10:57:56;;;;;;;0.10;0.10;;;;;;;;;;4881322;29;20108;-82
2023/09/04 11:00:30;;;;;;;0.00;0.00;;;;;;;;;;4881624;29;20045;-82
2023/09/04 11:02:56;;;;;;;0.00;0.00;;;;;;;;;;4883063;29;20108;-82
2023/09/04 11:05:24;;;;;;;0.73;0.10;;;;;;;;;;4881369;29;20132;-80
2023/09/04 11:07:50;;;;;;;0.00;0.00;;;;;;;;;;4882502;29;20409;-81
2023/09/04 11:10:19;;;;;;;0.00;0.00;;;;;;;;;;4881380;29;20060;-82
2023/09/04 11:12:46;;;;;;;0.00;0.00;;;;;;;;;;4865841;29;20398;-81
2023/09/04 11:15:12;;;;;;;0.00;0.00;;;;;;;;;;4882066;29;20131;-81
2023/09/04 11:17:40;;;;;;;0.00;0.00;;;;;;;;;;4881374;29;20049;-82
2023/09/04 11:20:06;;;;;;;0.00;0.00;;;;;;;;;;4881775;29;20440;-82
2023/09/04 11:22:33;;;;;;;0.00;0.00;;;;;;;;;;4880949;29;20521;-82
2023/09/04 11:24:59;;;;;;;1.35;0.40;;;;;;;;;;4865629;29;20056;-82
2023/09/04 11:27:26;;;;;;;0.00;0.00;;;;;;;;;;4880768;29;20057;-81
2023/09/04 11:29:52;;;;;;;0.25;0.05;;;;;;;;;;4881615;29;20093;-81
2023/09/04 11:32:19;;;;;;;0.20;0.10;;;;;;;;;;4882025;29;20509;-84
2023/09/04 11:34:46;;;;;;;0.20;0.20;;;;;;;;;;4881117;29;20056;-82
2023/09/04 11:37:12;;;;;;;0.00;0.00;;;;;;;;;;4882428;29;20053;-82
2023/09/04 11:40:11;;;;;;;0.00;0.00;;;;;;;;;;4864989;29;20068;-82
2023/09/04 11:42:37;;;;;;;0.00;0.00;;;;;;;;;;4831305;29;20053;-82
2023/09/04 11:45:04;;;;;;;0.00;0.00;;;;;;;;;;4881229;29;20486;-83
2023/09/04 11:47:30;;;;;;;0.10;0.00;;;;;;;;;;4882477;29;20048;-82
2023/09/04 11:49:56;;;;;;;0.00;0.00;;;;;;;;;;4866684;29;20057;-82
2023/09/04 11:52:26;;;;;;;0.00;0.00;;;;;;;;;;4880920;29;20084;-84
2023/09/04 11:54:53;;;;;;;0.00;0.00;;;;;;;;;;4880107;29;20057;-84
2023/09/04 11:57:19;;;;;;;0.00;0.00;;;;;;;;;;4866045;29;20053;-84
2023/09/04 11:59:46;;;;;;;0.00;0.00;;;;;;;;;;4880073;29;20049;-83
2023/09/04 12:02:12;;;;;;;0.00;0.00;;;;;;;;;;4881224;29;20128;-84
2023/09/04 12:04:38;;;;;;;0.00;0.00;;;;;;;;;;4881739;29;20387;-84
2023/09/04 12:07:06;;;;;;;0.00;0.00;;;;;;;;;;4881700;29;20052;-84
2023/09/04 12:09:36;;;;;;;0.00;0.00;;;;;;;;;;4880757;29;20053;-84
2023/09/04 12:12:03;;;;;;;0.00;0.00;;;;;;;;;;4865322;29;20052;-84
2023/09/04 12:14:29;;;;;;;0.00;0.00;;;;;;;;;;4881440;29;20053;-84
2023/09/04 12:16:55;;;;;;;0.20;0.20;;;;;;;;;;4865831;29;20206;-84
2023/09/04 12:19:23;;;;;;;0.00;0.00;;;;;;;;;;4879643;29;20537;-84
2023/09/04 12:21:49;;;;;;;0.00;0.00;;;;;;;;;;4864965;29;20100;-83
2023/09/04 12:24:16;;;;;;;0.00;0.00;;;;;;;;;;4865223;29;20135;-83
2023/09/04 12:26:43;;;;;;;0.00;0.00;;;;;;;;;;4880415;29;20482;-83
2023/09/04 12:29:09;;;;;;;0.00;0.00;;;;;;;;;;4880953;29;20525;-84
2023/09/04 12:31:36;;;;;;;0.00;0.00;;;;;;;;;;4881283;29;20118;-83
2023/09/04 12:34:02;;;;;;;0.00;0.00;;;;;;;;;;4880573;29;20052;-83
2023/09/04 12:36:32;;;;;;;0.00;0.00;;;;;;;;;;4881299;29;20049;-83
2023/09/04 12:38:58;;;;;;;0.00;0.00;;;;;;;;;;4879848;29;20071;-83
2023/09/04 12:41:25;;;;;;;0.00;0.00;;;;;;;;;;4864688;29;20049;-83
2023/09/04 12:43:51;;;;;;;0.05;0.00;;;;;;;;;;4880101;29;20438;-84
2023/09/04 12:46:17;;;;;;;0.00;0.00;;;;;;;;;;4881580;29;20053;-83
2023/09/04 12:48:43;;;;;;;0.00;0.00;;;;;;;;;;4864388;29;20041;-83
2023/09/04 12:51:09;;;;;;;0.00;0.00;;;;;;;;;;4881682;29;20052;-84
2023/09/04 12:53:36;;;;;;;0.00;0.00;;;;;;;;;;4881540;29;20370;-83
2023/09/04 12:56:03;;;;;;;0.00;0.00;;;;;;;;;;4880439;29;20052;-83
2023/09/04 12:58:29;;;;;;;0.00;0.00;;;;;;;;;;4880797;29;20045;-83
2023/09/04 13:00:56;;;;;;;0.00;0.00;;;;;;;;;;4880136;29;20355;-83
2023/09/04 13:03:22;;;;;;;0.57;0.52;;;;;;;;;;4880889;29;20049;-82
2023/09/04 13:05:49;;;;;;;0.00;0.00;;;;;;;;;;4880320;29;20072;-82
2023/09/04 13:08:15;;;;;;;0.00;0.00;;;;;;;;;;4864417;29;20049;-83
2023/09/04 13:10:45;;;;;;;0.00;0.00;;;;;;;;;;4881071;29;20092;-83
2023/09/04 13:13:11;;;;;;;0.00;0.00;;;;;;;;;;4880348;29;20048;-83
2023/09/04 13:15:37;;;;;;;0.10;0.10;;;;;;;;;;4879929;29;20497;-83
2023/09/04 13:18:04;;;;;;;0.00;0.00;;;;;;;;;;4864292;29;20044;-83
2023/09/04 13:20:30;;;;;;;0.10;0.10;;;;;;;;;;4879955;29;20037;-83
2023/09/04 13:22:56;;;;;;;0.08;0.00;;;;;;;;;;4879713;29;20053;-83
2023/09/04 13:25:22;;;;;;;0.03;0.00;;;;;;;;;;4879981;29;20109;-83
2023/09/04 13:27:48;;;;;;;0.00;0.00;;;;;;;;;;4880589;29;20088;-83
2023/09/04 13:30:15;;;;;;;0.00;0.00;;;;;;;;;;4881075;29;20093;-83
2023/09/04 13:32:41;;;;;;;0.00;0.00;;;;;;;;;;4879425;29;20049;-83
2023/09/04 13:35:08;;;;;;;0.00;0.00;;;;;;;;;;4879613;29;20053;-83
2023/09/04 13:37:34;;;;;;;0.00;0.00;;;;;;;;;;4879717;29;20101;-83
2023/09/04 13:40:03;;;;;;;0.00;0.00;;;;;;;;;;4879651;29;20060;-83
2023/09/04 13:42:29;;;;;;;0.00;0.00;;;;;;;;;;4865384;29;20103;-83
2023/09/04 13:44:57;;;;;;;0.00;0.00;;;;;;;;;;4880902;29;20152;-83
2023/09/04 13:47:25;;;;;;;0.00;0.00;;;;;;;;;;4881774;29;20085;-83
2023/09/04 13:49:51;;;;;;;0.00;0.00;;;;;;;;;;4884098;29;20053;-83
2023/09/04 13:52:17;;;;;;;0.00;0.00;;;;;;;;;;4883030;29;20091;-82
2023/09/04 13:54:44;;;;;;;0.00;0.00;;;;;;;;;;4884122;29;20056;-81
2023/09/04 13:57:11;;;;;;;0.00;0.00;;;;;;;;;;4884176;29;20053;-82
2023/09/04 13:59:37;;;;;;;0.00;0.00;;;;;;;;;;4867192;29;20101;-81
2023/09/04 14:02:03;;;;;;;0.00;0.00;;;;;;;;;;4882851;29;20041;-81
2023/09/04 14:04:29;;;;;;;0.00;0.00;;;;;;;;;;4883663;29;20045;-81
2023/09/04 14:06:55;;;;;;;0.00;0.00;;;;;;;;;;4882848;29;20079;-82
2023/09/04 14:09:21;;;;;;;0.05;0.05;;;;;;;;;;4883449;29;20189;-81
2023/09/04 14:11:47;;;;;;;0.00;0.00;;;;;;;;;;4882468;29;20057;-81
2023/09/04 14:14:15;;;;;;;0.00;0.00;;;;;;;;;;4884012;29;20045;-81
2023/09/04 14:16:41;;;;;;;0.00;0.00;;;;;;;;;;4882908;29;20045;-86
2023/09/04 14:19:09;;;;;;;1.00;0.20;;;;;;;;;;4882002;29;20060;-81
2023/09/04 14:21:36;;;;;;;6.68;0.28;;;;;;;;;;4882201;29;20113;-81
2023/09/04 14:24:02;;;;;;;0.00;0.00;;;;;;;;;;4881809;29;20063;-81
2023/09/04 14:26:28;;;;;;;0.00;0.00;;;;;;;;;;4882600;29;20363;-81
2023/09/04 14:28:54;;;;;;;0.00;0.00;;;;;;;;;;4882188;29;20053;-80
2023/09/04 14:31:22;;;;;;;0.00;0.00;;;;;;;;;;4882333;29;20124;-80
2023/09/04 14:33:49;;;;;;;0.00;0.00;;;;;;;;;;4882951;29;20088;-80
2023/09/04 14:36:15;;;;;;;0.08;0.08;;;;;;;;;;4882036;29;20498;-81
2023/09/04 14:38:41;;;;;;;0.40;0.20;;;;;;;;;;4881776;29;20072;-80
2023/09/04 14:41:33;;;;;;;0.00;0.00;;;;;;;;;;4881698;29;20052;-80